createdAt,value
2018-12-30T00:00:33.839Z,18.93
2018-12-30T00:03:03.082Z,19.27
2018-12-30T00:05:32.151Z,17.57
2018-12-30T00:08:01.428Z,17.07
2018-12-30T00:10:30.107Z,21.37
2018-12-30T00:12:58.784Z,18.03
2018-12-30T00:15:27.854Z,18.00
2018-12-30T00:17:56.556Z,17.13
2018-12-30T00:20:25.217Z,16.87
2018-12-30T00:22:53.879Z,16.50
2018-12-30T00:25:22.526Z,18.37
2018-12-30T00:27:51.408Z,20.40
2018-12-30T00:30:20.354Z,17.10
2018-12-30T00:32:49.036Z,18.33
2018-12-30T00:35:17.699Z,18.13
2018-12-30T00:37:46.374Z,19.17
2018-12-30T00:40:15.031Z,18.20
2018-12-30T00:42:43.696Z,17.97
2018-12-30T00:45:12.299Z,17.67
2018-12-30T00:47:42.536Z,17.40
2018-12-30T00:50:11.217Z,19.40
2018-12-30T00:52:39.862Z,18.97
2018-12-30T00:55:09.203Z,17.03
2018-12-30T00:57:37.892Z,17.03
2018-12-30T01:00:08.049Z,16.60
2018-12-30T01:02:36.721Z,17.10
2018-12-30T01:05:05.467Z,17.57
2018-12-30T01:07:34.728Z,16.80
2018-12-30T01:10:03.644Z,17.27
2018-12-30T01:12:32.321Z,19.33
2018-12-30T01:15:01.021Z,22.62
2018-12-30T01:17:29.663Z,16.60
2018-12-30T01:19:58.350Z,18.10
2018-12-30T01:22:27.529Z,16.77
2018-12-30T01:24:56.191Z,16.30
2018-12-30T01:27:24.852Z,15.67
2018-12-30T01:29:53.536Z,15.90
2018-12-30T01:32:22.431Z,17.17
2018-12-30T01:34:51.015Z,17.20
2018-12-30T01:37:19.719Z,17.87
2018-12-30T01:39:48.405Z,17.10
2018-12-30T01:42:17.083Z,17.03
2018-12-30T01:44:46.004Z,15.47
2018-12-30T01:47:14.762Z,17.20
2018-12-30T01:49:44.056Z,18.27
2018-12-30T01:52:12.652Z,17.43
2018-12-30T01:54:41.299Z,16.60
2018-12-30T01:57:09.957Z,15.50
2018-12-30T01:59:38.611Z,14.67
2018-12-30T02:02:07.269Z,15.67
2018-12-30T02:04:35.936Z,17.57
2018-12-30T02:07:04.597Z,16.13
2018-12-30T02:09:33.344Z,16.00
2018-12-30T02:12:02.007Z,19.67
2018-12-30T02:14:30.646Z,15.40
2018-12-30T02:16:59.329Z,15.97
2018-12-30T02:19:27.995Z,15.63
2018-12-30T02:21:57.218Z,15.13
2018-12-30T02:24:25.889Z,15.07
2018-12-30T02:26:54.542Z,16.13
2018-12-30T02:29:23.235Z,15.33
2018-12-30T02:31:51.900Z,15.23
2018-12-30T02:34:20.703Z,16.00
2018-12-30T02:36:49.371Z,14.33
2018-12-30T02:39:17.964Z,16.63
2018-12-30T02:41:46.619Z,17.10
2018-12-30T02:44:15.273Z,17.83
2018-12-30T02:46:44.005Z,17.83
2018-12-30T02:49:12.660Z,16.43
2018-12-30T02:51:50.051Z,17.00
2018-12-30T02:54:11.688Z,17.27
2018-12-30T02:56:40.363Z,19.07
2018-12-30T02:59:09.342Z,19.00
2018-12-30T03:01:38.002Z,18.23
2018-12-30T03:04:06.681Z,17.00
2018-12-30T03:06:35.361Z,17.33
2018-12-30T03:09:06.187Z,15.70
2018-12-30T03:11:35.262Z,18.13
2018-12-30T03:14:03.917Z,16.80
2018-12-30T03:16:33.184Z,16.33
2018-12-30T03:19:01.869Z,16.90
2018-12-30T03:21:30.522Z,16.63
2018-12-30T03:23:59.507Z,16.27
2018-12-30T03:26:28.201Z,16.63
2018-12-30T03:28:56.824Z,14.97
2018-12-30T03:31:25.503Z,15.67
2018-12-30T03:33:54.177Z,15.10
2018-12-30T03:36:23.005Z,15.53
2018-12-30T03:38:51.668Z,16.07
2018-12-30T03:41:20.339Z,14.57
2018-12-30T03:43:49.015Z,15.80
2018-12-30T03:46:17.681Z,14.33
2018-12-30T03:48:46.388Z,16.00
2018-12-30T03:51:15.050Z,17.17
2018-12-30T03:53:43.719Z,16.80
2018-12-30T03:56:12.377Z,15.13
2018-12-30T03:58:41.048Z,15.93
2018-12-30T04:01:09.760Z,16.43
2018-12-30T04:03:38.424Z,16.53
2018-12-30T04:06:07.091Z,14.37
2018-12-30T04:08:35.756Z,15.33
2018-12-30T04:11:04.428Z,13.93
2018-12-30T04:13:33.112Z,15.03
2018-12-30T04:16:01.806Z,16.53
2018-12-30T04:18:30.472Z,14.73
2018-12-30T04:20:59.146Z,16.10
2018-12-30T04:23:27.841Z,19.48
2018-12-30T04:25:56.500Z,16.20
2018-12-30T04:28:25.188Z,14.13
2018-12-30T04:30:53.854Z,17.27
2018-12-30T04:33:22.516Z,15.93
2018-12-30T04:35:51.182Z,15.53
2018-12-30T04:38:19.917Z,16.00
2018-12-30T04:40:48.588Z,14.83
2018-12-30T04:43:17.266Z,14.23
2018-12-30T04:45:45.965Z,14.33
2018-12-30T04:48:14.640Z,13.07
2018-12-30T04:50:43.315Z,15.20
2018-12-30T04:53:12.001Z,14.47
2018-12-30T04:55:40.661Z,15.90
2018-12-30T04:58:09.335Z,10.17
2018-12-30T05:00:38.020Z,14.10
2018-12-30T05:03:06.672Z,15.80
2018-12-30T05:05:35.358Z,16.00
2018-12-30T05:08:04.070Z,13.67
2018-12-30T05:10:32.731Z,15.73
2018-12-30T05:13:01.730Z,15.13
2018-12-30T05:15:30.392Z,14.53
2018-12-30T05:17:59.097Z,15.53
2018-12-30T05:20:27.905Z,14.47
2018-12-30T05:22:56.565Z,15.57
2018-12-30T05:25:25.253Z,14.20
2018-12-30T05:27:53.973Z,13.73
2018-12-30T05:30:22.679Z,14.43
2018-12-30T05:32:51.331Z,14.37
2018-12-30T05:35:20.060Z,14.07
2018-12-30T05:37:48.722Z,13.40
2018-12-30T05:40:17.399Z,15.10
2018-12-30T05:42:46.426Z,11.67
2018-12-30T05:45:15.092Z,12.97
2018-12-30T05:47:43.800Z,14.53
2018-12-30T05:50:12.695Z,12.90
2018-12-30T05:52:42.093Z,12.53
2018-12-30T05:55:10.923Z,13.80
2018-12-30T05:57:39.709Z,13.80
2018-12-30T06:00:08.976Z,15.03
2018-12-30T06:02:37.672Z,13.63
2018-12-30T06:05:06.398Z,12.50
2018-12-30T06:07:35.043Z,14.43
2018-12-30T06:10:03.723Z,14.37
2018-12-30T06:12:32.980Z,12.70
2018-12-30T06:15:01.680Z,14.03
2018-12-30T06:17:30.343Z,13.37
2018-12-30T06:19:59.081Z,13.43
2018-12-30T06:22:27.757Z,13.37
2018-12-30T06:24:56.417Z,13.33
2018-12-30T06:27:25.767Z,13.00
2018-12-30T06:29:54.428Z,12.70
2018-12-30T06:32:23.101Z,13.07
2018-12-30T06:34:51.905Z,13.10
2018-12-30T06:37:20.627Z,13.57
2018-12-30T06:39:49.292Z,13.83
2018-12-30T06:42:18.231Z,12.80
2018-12-30T06:44:46.954Z,11.80
2018-12-30T06:47:15.640Z,12.00
2018-12-30T06:49:44.324Z,11.70
2018-12-30T06:52:13.012Z,13.83
2018-12-30T06:54:41.764Z,12.73
2018-12-30T06:57:10.567Z,12.00
2018-12-30T06:59:39.232Z,12.10
2018-12-30T07:02:07.914Z,12.87
2018-12-30T07:04:36.626Z,11.47
2018-12-30T07:07:05.276Z,11.40
2018-12-30T07:09:33.947Z,11.43
2018-12-30T07:12:02.659Z,11.97
2018-12-30T07:14:31.415Z,11.10
2018-12-30T07:17:00.065Z,10.53
2018-12-30T07:19:29.314Z,11.63
2018-12-30T07:21:58.032Z,9.30
2018-12-30T07:24:26.652Z,11.07
2018-12-30T07:26:55.690Z,9.73
2018-12-30T07:29:24.369Z,10.87
2018-12-30T07:31:53.037Z,10.30
2018-12-30T07:34:22.011Z,15.60
2018-12-30T07:36:50.710Z,10.30
2018-12-30T07:39:19.385Z,14.53
2018-12-30T07:41:48.094Z,10.27
2018-12-30T07:44:16.756Z,12.20
2018-12-30T07:46:45.466Z,11.03
2018-12-30T07:49:14.192Z,10.87
2018-12-30T07:51:42.881Z,11.30
2018-12-30T07:54:11.556Z,11.00
2018-12-30T07:56:40.840Z,10.60
2018-12-30T07:59:09.477Z,11.07
2018-12-30T08:01:38.159Z,11.47
2018-12-30T08:04:06.874Z,11.37
2018-12-30T08:06:35.568Z,12.40
2018-12-30T08:09:06.631Z,11.90
2018-12-30T08:11:35.357Z,11.07
2018-12-30T08:14:04.010Z,12.00
2018-12-30T08:16:32.885Z,10.43
2018-12-30T08:19:02.109Z,10.00
2018-12-30T08:21:30.748Z,10.50
2018-12-30T08:24:01.088Z,10.83
2018-12-30T08:26:29.735Z,12.80
2018-12-30T08:28:59.633Z,12.63
2018-12-30T08:31:28.309Z,11.67
2018-12-30T08:33:56.970Z,11.77
2018-12-30T08:36:25.638Z,11.00
2018-12-30T08:38:54.280Z,11.43
2018-12-30T08:41:22.950Z,12.47
2018-12-30T08:43:51.609Z,10.93
2018-12-30T08:46:20.290Z,11.03
2018-12-30T08:48:49.771Z,12.70
2018-12-30T08:51:18.725Z,12.10
2018-12-30T08:53:47.702Z,12.17
2018-12-30T08:56:16.357Z,11.43
2018-12-30T08:58:45.009Z,12.77
2018-12-30T09:01:13.707Z,13.77
2018-12-30T09:03:42.713Z,14.97
2018-12-30T09:06:11.589Z,14.80
2018-12-30T09:08:41.385Z,15.23
2018-12-30T09:11:10.083Z,11.57
2018-12-30T09:13:38.833Z,12.80
2018-12-30T09:16:07.569Z,12.47
2018-12-30T09:18:36.208Z,12.93
2018-12-30T09:21:04.871Z,12.40
2018-12-30T09:23:37.381Z,12.53
2018-12-30T09:26:03.904Z,12.03
2018-12-30T09:28:32.924Z,12.77
2018-12-30T09:31:01.895Z,12.00
2018-12-30T09:33:30.495Z,11.37
2018-12-30T09:35:59.234Z,12.77
2018-12-30T09:38:27.902Z,13.00
2018-12-30T09:40:56.645Z,11.73
2018-12-30T09:43:25.316Z,12.50
2018-12-30T09:45:53.976Z,11.93
2018-12-30T09:48:22.675Z,12.10
2018-12-30T09:50:51.348Z,12.00
2018-12-30T09:53:20.333Z,11.50
2018-12-30T09:55:48.978Z,14.33
2018-12-30T09:58:19.066Z,13.20
2018-12-30T10:00:47.779Z,13.57
2018-12-30T10:03:18.016Z,12.37
2018-12-30T10:05:46.702Z,12.10
2018-12-30T10:08:16.558Z,13.33
2018-12-30T10:10:45.405Z,13.40
2018-12-30T10:13:14.279Z,12.77
2018-12-30T10:15:42.971Z,13.60
2018-12-30T10:18:11.669Z,13.47
2018-12-30T10:20:40.572Z,10.77
2018-12-30T10:23:09.238Z,12.97
2018-12-30T10:25:37.974Z,13.17
2018-12-30T10:28:06.687Z,14.70
2018-12-30T10:30:35.362Z,13.97
2018-12-30T10:33:04.118Z,13.60
2018-12-30T10:35:32.823Z,12.43
2018-12-30T10:38:01.560Z,14.27
2018-12-30T10:40:31.860Z,13.77
2018-12-30T10:43:00.574Z,12.87
2018-12-30T10:45:29.231Z,15.37
2018-12-30T10:47:57.953Z,14.17
2018-12-30T10:50:26.733Z,15.37
2018-12-30T10:52:55.389Z,14.27
2018-12-30T10:55:24.053Z,15.17
2018-12-30T10:57:54.062Z,15.50
2018-12-30T11:00:24.830Z,14.60
2018-12-30T11:02:53.498Z,15.13
2018-12-30T11:05:22.152Z,16.13
2018-12-30T11:07:50.866Z,16.17
2018-12-30T11:10:19.536Z,15.90
2018-12-30T11:12:48.818Z,17.03
2018-12-30T11:15:17.509Z,17.07
2018-12-30T11:17:46.196Z,15.77
2018-12-30T11:20:14.933Z,14.60
2018-12-30T11:22:43.597Z,15.60
2018-12-30T11:25:12.511Z,16.47
2018-12-30T11:27:41.214Z,21.50
2018-12-30T11:30:09.925Z,16.27
2018-12-30T11:32:38.577Z,17.37
2018-12-30T11:35:07.265Z,16.27
2018-12-30T11:37:36.034Z,15.00
2018-12-30T11:40:06.635Z,14.77
2018-12-30T11:42:35.318Z,15.97
2018-12-30T11:45:04.510Z,14.00
2018-12-30T11:47:33.765Z,15.20
2018-12-30T11:50:02.506Z,14.77
2018-12-30T11:52:31.168Z,15.00
2018-12-30T11:54:59.941Z,15.17
2018-12-30T11:57:28.605Z,15.40
2018-12-30T11:59:57.379Z,14.57
2018-12-30T12:02:26.049Z,14.67
2018-12-30T12:04:55.204Z,15.07
2018-12-30T12:07:23.899Z,14.13
2018-12-30T12:09:52.570Z,15.63
2018-12-30T12:12:21.256Z,14.07
2018-12-30T12:14:49.926Z,14.03
2018-12-30T12:17:18.633Z,14.33
2018-12-30T12:19:47.311Z,15.10
2018-12-30T12:22:16.407Z,16.27
2018-12-30T12:24:45.183Z,15.40
2018-12-30T12:27:13.829Z,17.97
2018-12-30T12:29:42.535Z,16.17
2018-12-30T12:32:11.207Z,16.60
2018-12-30T12:34:39.894Z,15.63
2018-12-30T12:37:08.565Z,15.87
2018-12-30T12:39:37.290Z,15.90
2018-12-30T12:42:05.935Z,17.40
2018-12-30T12:44:34.604Z,16.50
2018-12-30T12:47:03.281Z,16.13
2018-12-30T12:49:31.961Z,16.03
2018-12-30T12:52:00.724Z,15.50
2018-12-30T12:54:32.199Z,15.87
2018-12-30T12:56:59.753Z,16.73
2018-12-30T12:59:28.490Z,14.80
2018-12-30T13:01:57.174Z,15.53
2018-12-30T13:04:26.250Z,14.57
2018-12-30T13:06:55.011Z,16.73
2018-12-30T13:09:23.696Z,16.37
2018-12-30T13:11:52.391Z,16.43
2018-12-30T13:14:21.044Z,15.67
2018-12-30T13:16:49.722Z,15.43
2018-12-30T13:19:18.421Z,14.87
2018-12-30T13:21:47.615Z,13.70
2018-12-30T13:24:16.305Z,14.93
2018-12-30T13:26:45.007Z,14.47
2018-12-30T13:29:13.695Z,15.23
2018-12-30T13:31:42.376Z,14.63
2018-12-30T13:34:11.059Z,14.10
2018-12-30T13:36:40.603Z,13.97
2018-12-30T13:39:09.692Z,15.90
2018-12-30T13:41:38.362Z,16.43
2018-12-30T13:44:09.779Z,13.47
2018-12-30T13:46:38.451Z,16.17
2018-12-30T13:49:07.143Z,14.50
2018-12-30T13:51:35.838Z,14.93
2018-12-30T13:54:04.503Z,15.17
2018-12-30T13:56:33.234Z,14.47
2018-12-30T13:59:01.911Z,12.93
2018-12-30T14:01:30.606Z,13.30
2018-12-30T14:03:59.343Z,14.17
2018-12-30T14:06:28.001Z,14.60
2018-12-30T14:08:56.704Z,13.77
2018-12-30T14:11:25.353Z,15.17
2018-12-30T14:13:54.075Z,13.97
2018-12-30T14:16:22.738Z,12.77
2018-12-30T14:18:51.408Z,12.83
2018-12-30T14:21:20.060Z,13.03
2018-12-30T14:23:48.734Z,12.73
2018-12-30T14:26:19.495Z,13.57
2018-12-30T14:28:48.222Z,12.30
2018-12-30T14:31:16.963Z,14.13
2018-12-30T14:33:45.617Z,12.57
2018-12-30T14:36:14.279Z,13.13
2018-12-30T14:38:42.978Z,14.07
2018-12-30T14:41:11.626Z,14.10
2018-12-30T14:43:40.346Z,13.00
2018-12-30T14:46:09.047Z,13.80
2018-12-30T14:48:37.897Z,15.00
2018-12-30T14:51:06.552Z,15.18
2018-12-30T14:53:35.261Z,15.30
2018-12-30T14:56:03.953Z,12.87
2018-12-30T14:58:32.624Z,12.83
2018-12-30T15:01:01.313Z,14.33
2018-12-30T15:03:29.992Z,13.23
2018-12-30T15:05:58.679Z,14.00
2018-12-30T15:08:27.346Z,13.67
2018-12-30T15:10:56.053Z,13.80
2018-12-30T15:13:24.748Z,15.33
2018-12-30T15:15:53.453Z,12.63
2018-12-30T15:18:22.143Z,13.97
2018-12-30T15:20:50.818Z,13.53
2018-12-30T15:23:19.906Z,14.70
2018-12-30T15:25:48.557Z,12.00
2018-12-30T15:28:17.239Z,15.10
2018-12-30T15:30:45.925Z,13.73
2018-12-30T15:33:14.594Z,13.80
2018-12-30T15:35:43.427Z,15.23
2018-12-30T15:38:12.116Z,14.00
2018-12-30T15:40:41.092Z,14.10
2018-12-30T15:43:09.858Z,13.90
2018-12-30T15:45:38.525Z,13.10
2018-12-30T15:48:07.202Z,12.03
2018-12-30T15:50:35.874Z,13.27
2018-12-30T15:53:04.570Z,13.33
2018-12-30T15:55:33.258Z,13.20
2018-12-30T15:58:02.213Z,12.20
2018-12-30T16:00:30.907Z,12.37
2018-12-30T16:02:59.622Z,13.60
2018-12-30T16:05:28.309Z,13.50
2018-12-30T16:07:56.970Z,12.87
2018-12-30T16:10:25.637Z,12.43
2018-12-30T16:13:00.588Z,14.33
2018-12-30T16:15:33.733Z,14.93
2018-12-30T16:18:02.389Z,14.70
2018-12-30T16:20:31.087Z,13.47
2018-12-30T16:22:59.746Z,12.70
2018-12-30T16:25:28.419Z,12.50
2018-12-30T16:27:57.100Z,13.77
2018-12-30T16:30:25.802Z,12.87
2018-12-30T16:32:54.774Z,14.40
2018-12-30T16:35:23.461Z,13.93
2018-12-30T16:37:52.121Z,15.30
2018-12-30T16:40:20.870Z,12.03
2018-12-30T16:42:49.558Z,15.07
2018-12-30T16:45:18.252Z,13.77
2018-12-30T16:47:46.948Z,15.60
2018-12-30T16:50:15.716Z,14.43
2018-12-30T16:52:44.370Z,13.10
2018-12-30T16:55:13.055Z,13.60
2018-12-30T16:57:41.739Z,14.07
2018-12-30T17:00:10.604Z,14.57
2018-12-30T17:02:41.262Z,14.07
2018-12-30T17:05:13.760Z,14.50
2018-12-30T17:07:42.461Z,12.63
2018-12-30T17:10:11.236Z,15.03
2018-12-30T17:12:39.905Z,15.30
2018-12-30T17:15:09.363Z,12.20
2018-12-30T17:17:38.049Z,12.83
2018-12-30T17:20:07.477Z,12.30
2018-12-30T17:22:36.189Z,12.87
2018-12-30T17:25:06.238Z,12.63
2018-12-30T17:27:34.919Z,13.17
2018-12-30T17:30:03.611Z,12.57
2018-12-30T17:32:32.282Z,14.53
2018-12-30T17:35:00.963Z,13.47
2018-12-30T17:37:29.638Z,12.93
2018-12-30T17:39:58.388Z,12.93
2018-12-30T17:42:27.703Z,13.40
2018-12-30T17:44:56.383Z,12.47
2018-12-30T17:47:25.071Z,12.93
2018-12-30T17:49:53.754Z,12.93
2018-12-30T17:52:22.432Z,14.10
2018-12-30T17:54:51.091Z,12.67
2018-12-30T17:57:19.761Z,12.57
2018-12-30T17:59:48.760Z,14.57
2018-12-30T18:02:17.596Z,14.77
2018-12-30T18:04:46.289Z,17.00
2018-12-30T18:07:14.973Z,14.17
2018-12-30T18:09:43.644Z,16.67
2018-12-30T18:12:12.325Z,15.13
2018-12-30T18:14:41.025Z,16.33
2018-12-30T18:17:12.498Z,17.50
2018-12-30T18:19:41.213Z,15.87
2018-12-30T18:22:09.938Z,16.20
2018-12-30T18:24:38.603Z,16.90
2018-12-30T18:27:07.270Z,15.53
2018-12-30T18:29:42.144Z,16.30
2018-12-30T18:32:10.857Z,16.30
2018-12-30T18:34:39.677Z,16.30
2018-12-30T18:40:05.240Z,17.67
2018-12-30T18:42:34.136Z,16.83
2018-12-30T18:45:02.862Z,16.17
2018-12-30T18:47:36.195Z,16.87
2018-12-30T18:52:49.999Z,18.17
2018-12-30T18:55:18.720Z,17.27
2018-12-30T18:57:47.506Z,16.90
2018-12-30T19:00:17.798Z,15.63
2018-12-30T19:02:46.630Z,15.47
2018-12-30T19:05:15.277Z,13.97
2018-12-30T19:07:43.971Z,15.93
2018-12-30T19:10:12.818Z,16.50
2018-12-30T19:12:41.469Z,16.23
2018-12-30T19:15:10.154Z,15.47
2018-12-30T19:17:38.863Z,14.97
2018-12-30T19:20:07.528Z,17.10
2018-12-30T19:22:36.205Z,16.30
2018-12-30T19:25:05.315Z,14.10
2018-12-30T19:27:34.033Z,16.27
2018-12-30T19:30:02.702Z,15.50
2018-12-30T19:32:31.409Z,15.13
2018-12-30T19:35:00.155Z,15.37
2018-12-30T19:37:29.368Z,16.77
2018-12-30T19:39:58.056Z,14.67
2018-12-30T19:42:26.903Z,14.90
2018-12-30T19:44:55.581Z,13.10
2018-12-30T19:47:24.237Z,13.27
2018-12-30T19:49:53.405Z,14.87
2018-12-30T19:52:25.087Z,14.07
2018-12-30T19:54:53.759Z,15.10
2018-12-30T19:57:23.992Z,13.77
2018-12-30T19:59:52.788Z,14.53
2018-12-30T20:02:21.450Z,13.60
2018-12-30T20:04:50.133Z,14.17
2018-12-30T20:07:18.838Z,15.13
2018-12-30T20:09:47.825Z,14.60
2018-12-30T20:12:16.691Z,14.90
2018-12-30T20:14:45.401Z,13.30
2018-12-30T20:17:14.068Z,20.12
2018-12-30T20:19:42.739Z,16.83
2018-12-30T20:22:11.609Z,15.83
2018-12-30T20:24:41.625Z,13.20
2018-12-30T20:27:10.340Z,16.27
2018-12-30T20:29:39.007Z,18.73
2018-12-30T20:32:07.797Z,13.80
2018-12-30T20:34:36.545Z,14.63
2018-12-30T20:37:05.238Z,14.40
2018-12-30T20:39:33.918Z,15.00
2018-12-30T20:42:02.596Z,14.10
2018-12-30T20:44:31.268Z,15.77
2018-12-30T20:47:00.057Z,13.83
2018-12-30T20:49:28.955Z,13.83
2018-12-30T20:51:57.676Z,16.20
2018-12-30T20:54:26.331Z,12.80
2018-12-30T20:56:55.027Z,14.77
2018-12-30T20:59:25.291Z,14.60
2018-12-30T21:01:53.975Z,15.40
2018-12-30T21:04:23.593Z,16.17
2018-12-30T21:06:52.277Z,15.83
2018-12-30T21:09:20.983Z,16.27
2018-12-30T21:11:49.657Z,15.27
2018-12-30T21:14:18.366Z,16.47
2018-12-30T21:16:47.246Z,17.48
2018-12-30T21:19:15.985Z,16.80
2018-12-30T21:21:44.683Z,16.70
2018-12-30T21:24:13.396Z,17.63
2018-12-30T21:26:45.456Z,15.50
2018-12-30T21:29:12.457Z,16.93
2018-12-30T21:31:41.176Z,16.10
2018-12-30T21:34:09.815Z,17.90
2018-12-30T21:36:39.914Z,17.37
2018-12-30T21:39:08.552Z,17.67
2018-12-30T21:41:37.222Z,18.43
2018-12-30T21:44:05.993Z,18.03
2018-12-30T21:46:34.682Z,16.27
2018-12-30T21:49:03.458Z,17.87
2018-12-30T21:51:32.156Z,17.10
2018-12-30T21:54:00.847Z,17.83
2018-12-30T21:56:29.484Z,15.77
2018-12-30T21:58:58.134Z,18.47
2018-12-30T22:01:26.793Z,18.63
2018-12-30T22:03:55.416Z,18.17
2018-12-30T22:06:24.082Z,18.10
2018-12-30T22:08:52.774Z,18.10
2018-12-30T22:11:21.437Z,18.10
2018-12-30T22:13:50.105Z,20.27
2018-12-30T22:16:18.794Z,17.77
2018-12-30T22:18:49.411Z,18.00
2018-12-30T22:21:18.076Z,17.00
2018-12-30T22:23:46.737Z,17.80
2018-12-30T22:26:15.405Z,23.73
2018-12-30T22:28:44.081Z,19.93
2018-12-30T22:31:13.360Z,18.73
2018-12-30T22:33:42.029Z,18.17
2018-12-30T22:36:10.758Z,21.33
2018-12-30T22:38:39.432Z,16.93
2018-12-30T22:41:08.154Z,20.00
2018-12-30T22:43:36.897Z,18.83
2018-12-30T22:46:06.245Z,19.30
2018-12-30T22:48:35.179Z,18.87
2018-12-30T22:51:04.021Z,18.93
2018-12-30T22:53:32.650Z,20.13
2018-12-30T22:56:01.328Z,20.90
2018-12-30T22:58:30.002Z,19.27
2018-12-30T23:01:00.296Z,17.97
2018-12-30T23:03:28.928Z,18.40
2018-12-30T23:05:57.634Z,17.10
2018-12-30T23:08:26.334Z,17.60
2018-12-30T23:10:55.002Z,16.83
2018-12-30T23:13:23.665Z,18.10
2018-12-30T23:15:52.345Z,18.83
2018-12-30T23:18:21.079Z,18.03
2018-12-30T23:20:49.853Z,18.97
2018-12-30T23:23:19.011Z,23.45
2018-12-30T23:25:48.463Z,19.03
2018-12-30T23:28:17.118Z,17.87
2018-12-30T23:30:45.806Z,18.33
2018-12-30T23:33:14.480Z,15.83
2018-12-30T23:35:43.146Z,20.37
2018-12-30T23:38:11.826Z,17.60
2018-12-30T23:40:40.508Z,18.30
2018-12-30T23:43:09.203Z,17.67
2018-12-30T23:45:37.915Z,17.70
2018-12-30T23:48:06.623Z,18.70
2018-12-30T23:50:35.262Z,17.93
2018-12-30T23:53:03.953Z,16.53
2018-12-30T23:55:32.617Z,17.93
2018-12-30T23:58:01.668Z,17.00
